createdAt,value
2023-04-01T00:00:52.996Z,96.89
2023-04-01T00:03:21.658Z,97.05
2023-04-01T00:05:51.360Z,97.26
2023-04-01T00:08:19.832Z,97.43
2023-04-01T00:10:47.885Z,97.07
2023-04-01T00:13:16.450Z,97.13
2023-04-01T00:15:45.101Z,97.04
2023-04-01T00:18:13.793Z,97.28
2023-04-01T00:20:45.348Z,96.95
2023-04-01T00:23:15.507Z,97.17
2023-04-01T00:25:43.914Z,97.11
2023-04-01T00:28:11.983Z,97.25
2023-04-01T00:30:40.220Z,97.56
2023-04-01T00:33:08.482Z,97.79
2023-04-01T00:35:36.758Z,97.64
2023-04-01T00:38:04.904Z,97.82
2023-04-01T00:40:36.200Z,98.08
2023-04-01T00:43:04.619Z,98.21
2023-04-01T00:45:36.141Z,98.10
2023-04-01T00:48:08.039Z,98.33
2023-04-01T00:50:36.851Z,98.39
2023-04-01T00:53:05.468Z,98.74
2023-04-01T00:55:37.710Z,98.50
2023-04-01T00:58:08.910Z,98.58
2023-04-01T01:00:38.138Z,98.45
2023-04-01T01:03:06.284Z,98.28
2023-04-01T01:05:49.564Z,97.96
2023-04-01T01:08:25.130Z,97.96
2023-04-01T01:10:54.588Z,97.29
2023-04-01T01:13:27.748Z,97.08
2023-04-01T01:15:59.961Z,97.05
2023-04-01T01:18:34.929Z,97.01
2023-04-01T01:21:38.828Z,96.88
2023-04-01T01:24:45.204Z,97.14
2023-04-01T01:27:18.077Z,96.96
2023-04-01T01:30:24.655Z,97.00
2023-04-01T01:33:03.641Z,96.87
2023-04-01T01:35:36.514Z,96.89
2023-04-01T01:38:06.683Z,96.85
2023-04-01T01:40:36.662Z,96.90
2023-04-01T01:43:08.254Z,96.64
2023-04-01T01:45:37.796Z,96.63
2023-04-01T01:48:07.279Z,96.74
2023-04-01T01:50:37.433Z,96.52
2023-04-01T01:53:07.052Z,96.66
2023-04-01T01:55:37.228Z,96.60
2023-04-01T01:58:09.140Z,96.39
2023-04-01T02:00:37.430Z,96.60
2023-04-01T02:03:06.601Z,96.73
2023-04-01T02:05:36.662Z,96.57
2023-04-01T02:08:08.125Z,96.90
2023-04-01T02:10:39.395Z,96.41
2023-04-01T02:13:12.523Z,96.54
2023-04-01T02:15:45.264Z,96.45
2023-04-01T02:18:13.984Z,96.47
2023-04-01T02:20:43.990Z,96.30
2023-04-01T02:23:12.678Z,96.37
2023-04-01T02:25:42.541Z,96.46
2023-04-01T02:28:11.972Z,96.62
2023-04-01T02:30:41.741Z,96.45
2023-04-01T02:33:10.035Z,96.43
2023-04-01T02:35:38.650Z,96.48
2023-04-01T02:38:08.401Z,96.20
2023-04-01T02:40:47.691Z,96.37
2023-04-01T02:43:16.095Z,96.56
2023-04-01T02:45:44.245Z,96.46
2023-04-01T02:48:13.712Z,96.00
2023-04-01T02:50:42.193Z,96.13
2023-04-01T02:53:12.338Z,96.10
2023-04-01T02:55:40.708Z,96.28
2023-04-01T02:58:08.980Z,96.26
2023-04-01T03:00:37.178Z,96.25
2023-04-01T03:03:05.811Z,96.34
2023-04-01T03:05:34.168Z,96.41
2023-04-01T03:08:02.388Z,96.50
2023-04-01T03:10:31.794Z,96.33
2023-04-01T03:12:59.874Z,96.44
2023-04-01T03:15:27.963Z,96.21
2023-04-01T03:17:56.095Z,96.18
2023-04-01T03:20:24.519Z,96.23
2023-04-01T03:22:52.738Z,96.37
2023-04-01T03:25:20.939Z,96.64
2023-04-01T03:27:50.440Z,96.10
2023-04-01T03:30:18.657Z,96.18
2023-04-01T03:32:47.028Z,96.07
2023-04-01T03:35:15.154Z,96.10
2023-04-01T03:37:43.217Z,95.87
2023-04-01T03:40:12.437Z,95.81
2023-04-01T03:42:40.599Z,95.54
2023-04-01T03:45:11.184Z,95.38
2023-04-01T03:47:39.643Z,95.39
2023-04-01T03:50:09.327Z,95.59
2023-04-01T03:52:37.612Z,95.58
2023-04-01T03:55:07.031Z,95.45
2023-04-01T03:57:35.153Z,95.50
2023-04-01T04:00:03.231Z,95.84
2023-04-01T04:02:32.793Z,95.74
2023-04-01T04:05:00.949Z,95.48
2023-04-01T04:07:28.998Z,95.63
2023-04-01T04:09:57.094Z,95.73
2023-04-01T04:12:25.187Z,95.80
2023-04-01T04:14:53.262Z,95.67
2023-04-01T04:17:21.303Z,95.72
2023-04-01T04:19:50.850Z,95.82
2023-04-01T04:22:18.912Z,95.80
2023-04-01T04:24:46.964Z,95.76
2023-04-01T04:27:15.034Z,95.70
2023-04-01T04:29:43.240Z,95.72
2023-04-01T04:32:11.279Z,95.75
2023-04-01T04:34:39.808Z,95.78
2023-04-01T04:37:09.259Z,95.73
2023-04-01T04:39:37.325Z,95.79
2023-04-01T04:42:05.765Z,95.71
2023-04-01T04:44:33.805Z,95.67
2023-04-01T04:47:01.905Z,95.70
2023-04-01T04:49:29.998Z,95.52
2023-04-01T04:51:58.049Z,95.76
2023-04-01T04:54:27.509Z,95.84
2023-04-01T04:56:56.029Z,96.03
2023-04-01T04:59:24.211Z,96.17
2023-04-01T05:01:52.299Z,96.00
2023-04-01T05:04:20.393Z,96.06
2023-04-01T05:06:48.447Z,96.14
2023-04-01T05:09:16.966Z,96.39
2023-04-01T05:11:46.386Z,96.37
2023-04-01T05:14:15.645Z,96.36
2023-04-01T05:16:43.765Z,96.44
2023-04-01T05:19:11.924Z,96.52
2023-04-01T05:21:39.974Z,96.51
2023-04-01T05:24:10.759Z,96.33
2023-04-01T05:26:39.031Z,96.41
2023-04-01T05:29:08.537Z,96.79
2023-04-01T05:31:36.607Z,96.71
2023-04-01T05:34:04.734Z,96.65
2023-04-01T05:36:32.793Z,96.54
2023-04-01T05:39:00.866Z,96.35
2023-04-01T05:41:28.968Z,96.40
2023-04-01T05:43:57.368Z,96.49
2023-04-01T05:46:26.846Z,96.40
2023-04-01T05:48:55.013Z,96.54
2023-04-01T05:51:23.331Z,96.40
2023-04-01T05:53:51.722Z,96.24
2023-04-01T05:56:19.842Z,96.37
2023-04-01T05:58:52.561Z,96.42
2023-04-01T06:01:21.060Z,96.57
2023-04-01T06:03:50.802Z,96.59
2023-04-01T06:06:25.327Z,96.71
2023-04-01T06:08:54.043Z,96.67
2023-04-01T06:11:31.644Z,96.73
2023-04-01T06:14:17.876Z,96.75
2023-04-01T06:17:00.399Z,96.92
2023-04-01T06:19:37.504Z,97.00
2023-04-01T06:22:24.347Z,97.09
2023-04-01T06:25:04.882Z,96.90
2023-04-01T06:27:49.340Z,96.91
2023-04-01T06:30:44.432Z,97.08
2023-04-01T06:33:44.476Z,96.79
2023-04-01T06:36:41.275Z,96.41
2023-04-01T06:39:44.201Z,96.37
2023-04-01T06:42:36.358Z,96.51
2023-04-01T06:45:17.223Z,96.48
2023-04-01T06:47:56.391Z,96.76
2023-04-01T06:50:28.716Z,96.66
2023-04-01T06:53:06.904Z,96.58
2023-04-01T06:55:41.520Z,96.43
2023-04-01T06:58:15.778Z,96.60
2023-04-01T07:00:46.774Z,96.65
2023-04-01T07:03:22.354Z,96.52
2023-04-01T07:05:51.512Z,96.55
2023-04-01T07:08:25.522Z,96.42
2023-04-01T07:10:57.888Z,96.32
2023-04-01T07:13:28.589Z,96.38
2023-04-01T07:16:05.041Z,96.29
2023-04-01T07:18:39.284Z,96.53
2023-04-01T07:21:13.302Z,96.58
2023-04-01T07:23:46.736Z,96.70
2023-04-01T07:26:21.755Z,96.55
2023-04-01T07:28:50.432Z,96.42
2023-04-01T07:31:28.824Z,96.22
2023-04-01T07:34:06.163Z,95.94
2023-04-01T07:36:40.996Z,96.02
2023-04-01T07:39:20.869Z,95.46
2023-04-01T07:41:56.615Z,95.25
2023-04-01T07:44:30.807Z,95.50
2023-04-01T07:47:08.178Z,95.32
2023-04-01T07:49:44.940Z,95.38
2023-04-01T07:52:17.829Z,95.33
2023-04-01T07:54:50.999Z,95.07
2023-04-01T07:57:22.165Z,94.98
2023-04-01T07:59:58.922Z,94.86
2023-04-01T08:02:36.852Z,94.72
2023-04-01T08:05:15.323Z,94.62
2023-04-01T08:07:47.701Z,94.47
2023-04-01T08:10:22.674Z,94.14
2023-04-01T08:12:58.489Z,94.00
2023-04-01T08:15:29.948Z,94.30
2023-04-01T08:18:08.242Z,94.14
2023-04-01T08:20:40.538Z,94.23
2023-04-01T08:23:14.651Z,93.96
2023-04-01T08:25:48.288Z,94.14
2023-04-01T08:28:22.732Z,94.20
2023-04-01T08:30:54.398Z,94.23
2023-04-01T08:33:26.308Z,94.23
2023-04-01T08:35:58.574Z,94.00
2023-04-01T08:38:32.290Z,93.79
2023-04-01T08:41:03.734Z,93.95
2023-04-01T08:43:45.740Z,94.12
2023-04-01T08:46:41.166Z,94.21
2023-04-01T08:49:19.901Z,94.25
2023-04-01T08:52:20.868Z,94.42
2023-04-01T08:55:03.957Z,94.53
2023-04-01T08:57:44.658Z,93.93
2023-04-01T09:00:29.410Z,93.82
2023-04-01T09:03:21.741Z,93.45
2023-04-01T09:06:19.251Z,93.60
2023-04-01T09:09:02.342Z,93.18
2023-04-01T09:11:35.686Z,93.29
2023-04-01T09:14:25.656Z,93.41
2023-04-01T09:17:04.689Z,93.42
2023-04-01T09:19:46.056Z,93.41
2023-04-01T09:22:43.236Z,93.61
2023-04-01T09:25:40.832Z,93.49
2023-04-01T09:28:13.616Z,93.40
2023-04-01T09:31:13.543Z,93.46
2023-04-01T09:34:16.078Z,93.65
2023-04-01T09:36:48.645Z,93.37
2023-04-01T09:39:34.221Z,93.50
2023-04-01T09:42:28.890Z,93.55
2023-04-01T09:45:00.789Z,93.65
2023-04-01T09:47:53.083Z,93.57
2023-04-01T09:50:35.177Z,93.68
2023-04-01T09:53:12.048Z,93.79
2023-04-01T09:56:10.611Z,93.92
2023-04-01T09:59:24.377Z,93.82
2023-04-01T10:02:39.036Z,93.86
2023-04-01T10:05:32.789Z,94.26
2023-04-01T10:08:36.080Z,93.65
2023-04-01T10:11:31.992Z,93.66
2023-04-01T10:14:38.620Z,93.93
2023-04-01T10:17:49.945Z,93.45
2023-04-01T10:20:48.546Z,93.50
2023-04-01T10:23:24.874Z,93.12
2023-04-01T10:26:19.798Z,93.12
2023-04-01T10:29:14.538Z,92.84
2023-04-01T10:32:32.662Z,93.23
2023-04-01T10:35:43.148Z,93.37
2023-04-01T10:38:43.850Z,93.24
2023-04-01T10:41:29.607Z,93.35
2023-04-01T10:44:27.517Z,93.57
2023-04-01T10:47:10.401Z,93.83
2023-04-01T10:50:14.247Z,93.72
2023-04-01T10:53:31.255Z,94.13
2023-04-01T10:56:31.745Z,94.25
2023-04-01T10:59:36.336Z,94.65
2023-04-01T11:02:55.662Z,94.86
2023-04-01T11:06:15.950Z,94.53
2023-04-01T11:09:18.984Z,94.52
2023-04-01T11:12:16.182Z,94.63
2023-04-01T11:15:19.662Z,94.50
2023-04-01T11:18:35.722Z,94.42
2023-04-01T11:21:31.176Z,94.36
2023-04-01T11:24:11.118Z,94.42
2023-04-01T11:26:48.062Z,94.23
2023-04-01T11:29:56.585Z,93.76
2023-04-01T11:32:41.347Z,93.71
2023-04-01T11:35:40.985Z,93.63
2023-04-01T11:38:37.644Z,93.63
2023-04-01T11:41:27.819Z,93.59
2023-04-01T11:44:06.991Z,93.51
2023-04-01T11:46:44.914Z,93.58
2023-04-01T11:49:26.249Z,93.64
2023-04-01T11:52:07.245Z,93.95
2023-04-01T11:54:59.150Z,93.75
2023-04-01T11:57:43.356Z,93.15
2023-04-01T12:00:34.088Z,92.58
2023-04-01T12:05:26.585Z,92.05
2023-04-01T12:08:10.305Z,92.06
2023-04-01T12:10:42.179Z,91.83
2023-04-01T12:13:21.456Z,91.33
2023-04-01T12:16:15.799Z,91.22
2023-04-01T12:18:48.545Z,91.00
2023-04-01T12:21:24.740Z,90.63
2023-04-01T12:24:28.869Z,90.54
2023-04-01T12:27:08.424Z,90.56
2023-04-01T12:29:58.478Z,90.57
2023-04-01T12:32:34.162Z,90.13
2023-04-01T12:35:16.320Z,90.02
2023-04-01T12:37:52.804Z,89.78
2023-04-01T12:40:34.134Z,89.39
2023-04-01T12:43:21.151Z,89.18
2023-04-01T12:45:56.452Z,88.66
2023-04-01T12:48:41.601Z,88.62
2023-04-01T12:51:47.522Z,88.34
2023-04-01T12:54:46.083Z,88.40
2023-04-01T12:57:31.471Z,87.80
2023-04-01T13:00:23.066Z,87.43
2023-04-01T13:03:02.027Z,87.38
2023-04-01T13:05:51.721Z,87.41
2023-04-01T13:08:39.014Z,88.12
2023-04-01T13:11:21.597Z,87.36
2023-04-01T13:14:30.753Z,86.78
2023-04-01T13:17:01.614Z,86.58
2023-04-01T13:19:33.740Z,86.63
2023-04-01T13:22:08.431Z,86.99
2023-04-01T13:24:43.793Z,86.88
2023-04-01T13:27:18.446Z,86.46
2023-04-01T13:30:02.502Z,85.89
2023-04-01T13:35:23.187Z,84.81
2023-04-01T13:38:00.522Z,84.40
2023-04-01T13:40:49.365Z,84.72
2023-04-01T13:43:30.854Z,84.76
2023-04-01T13:46:28.211Z,84.80
2023-04-01T13:49:14.943Z,84.85
2023-04-01T13:52:03.271Z,84.83
2023-04-01T13:54:45.811Z,84.59
2023-04-01T13:57:24.913Z,84.61
2023-04-01T14:00:19.215Z,84.38
2023-04-01T14:02:57.970Z,84.10
2023-04-01T14:05:43.250Z,83.99
2023-04-01T14:08:22.255Z,84.00
2023-04-01T14:10:57.591Z,83.68
2023-04-01T14:13:30.395Z,83.56
2023-04-01T14:16:10.436Z,83.59
2023-04-01T14:19:20.490Z,83.53
2023-04-01T14:21:55.009Z,83.55
2023-04-01T14:24:38.132Z,83.23
2023-04-01T14:27:36.796Z,83.08
2023-04-01T14:30:22.555Z,82.87
2023-04-01T14:32:58.751Z,82.52
2023-04-01T14:35:36.364Z,82.63
2023-04-01T14:38:26.216Z,82.60
2023-04-01T14:40:58.665Z,82.06
2023-04-01T14:43:43.229Z,81.74
2023-04-01T14:46:19.340Z,81.93
2023-04-01T14:48:58.125Z,81.48
2023-04-01T14:51:33.270Z,80.98
2023-04-01T14:54:06.574Z,80.79
2023-04-01T14:56:42.844Z,80.75
2023-04-01T14:59:15.583Z,80.85
2023-04-01T15:01:49.462Z,81.13
2023-04-01T15:04:39.574Z,80.99
2023-04-01T15:07:26.343Z,81.09
2023-04-01T15:10:01.020Z,80.44
2023-04-01T15:12:32.767Z,80.17
2023-04-01T15:15:19.063Z,79.92
2023-04-01T15:17:57.197Z,80.14
2023-04-01T15:20:36.468Z,79.64
2023-04-01T15:23:13.871Z,79.91
2023-04-01T15:25:51.819Z,79.91
2023-04-01T15:28:31.947Z,80.37
2023-04-01T15:31:04.996Z,80.35
2023-04-01T15:33:51.383Z,80.18
2023-04-01T15:36:31.815Z,80.10
2023-04-01T15:39:11.348Z,79.87
2023-04-01T15:41:46.949Z,79.75
2023-04-01T15:44:36.777Z,79.61
2023-04-01T15:47:11.477Z,79.14
2023-04-01T15:49:44.037Z,77.83
2023-04-01T15:52:21.415Z,77.49
2023-04-01T15:55:02.001Z,77.24
2023-04-01T15:57:35.157Z,77.28
2023-04-01T16:00:21.804Z,76.86
2023-04-01T16:02:52.174Z,76.77
2023-04-01T16:05:31.224Z,76.80
2023-04-01T16:08:29.985Z,76.95
2023-04-01T16:11:09.679Z,77.00
2023-04-01T16:13:51.117Z,76.98
2023-04-01T16:16:29.616Z,76.77
2023-04-01T16:19:09.592Z,76.62
2023-04-01T16:21:43.027Z,76.49
2023-04-01T16:24:25.213Z,75.57
2023-04-01T16:26:56.977Z,75.35
2023-04-01T16:29:35.164Z,75.26
2023-04-01T16:32:17.543Z,74.90
2023-04-01T16:34:50.685Z,75.14
2023-04-01T16:37:22.881Z,74.58
2023-04-01T16:40:03.295Z,74.56
2023-04-01T16:42:41.208Z,74.48
2023-04-01T16:45:21.313Z,73.70
2023-04-01T16:47:52.175Z,72.95
2023-04-01T16:50:24.315Z,72.68
2023-04-01T16:53:04.453Z,72.32
2023-04-01T16:55:48.017Z,71.93
2023-04-01T16:58:21.025Z,72.16
2023-04-01T17:00:52.881Z,72.58
2023-04-01T17:03:28.090Z,72.90
2023-04-01T17:06:20.540Z,73.09
2023-04-01T17:09:01.865Z,73.24
2023-04-01T17:11:36.476Z,73.50
2023-04-01T17:14:15.685Z,73.37
2023-04-01T17:16:57.758Z,73.10
2023-04-01T17:19:41.481Z,72.66
2023-04-01T17:22:18.331Z,72.84
2023-04-01T17:24:59.544Z,72.73
2023-04-01T17:27:36.893Z,72.81
2023-04-01T17:30:22.620Z,72.59
2023-04-01T17:33:04.684Z,72.60
2023-04-01T17:35:35.090Z,72.49
2023-04-01T17:38:15.333Z,72.44
2023-04-01T17:40:53.658Z,72.61
2023-04-01T17:43:28.836Z,72.89
2023-04-01T17:45:58.602Z,72.90
2023-04-01T17:48:40.465Z,72.85
2023-04-01T17:51:24.179Z,73.10
2023-04-01T17:53:59.285Z,72.90
2023-04-01T17:56:38.900Z,72.75
2023-04-01T17:59:15.494Z,72.56
2023-04-01T18:01:51.967Z,72.30
2023-04-01T18:04:34.139Z,72.40
2023-04-01T18:07:20.379Z,72.45
2023-04-01T18:09:58.188Z,73.01
2023-04-01T18:12:33.601Z,73.38
2023-04-01T18:15:12.985Z,73.46
2023-04-01T18:17:48.027Z,73.91
2023-04-01T18:20:28.088Z,74.42
2023-04-01T18:22:58.877Z,74.52
2023-04-01T18:25:30.810Z,74.63
2023-04-01T18:28:18.721Z,74.93
2023-04-01T18:30:52.745Z,74.94
2023-04-01T18:33:25.310Z,75.13
2023-04-01T18:35:55.342Z,75.32
2023-04-01T18:38:30.776Z,75.69
2023-04-01T18:41:14.178Z,75.98
2023-04-01T18:43:46.022Z,76.23
2023-04-01T18:46:25.565Z,76.41
2023-04-01T18:48:58.485Z,76.43
2023-04-01T18:51:28.756Z,76.51
2023-04-01T18:54:00.517Z,76.43
2023-04-01T18:56:32.216Z,76.48
2023-04-01T18:59:08.410Z,76.38
2023-04-01T19:01:43.173Z,76.09
2023-04-01T19:04:19.020Z,76.05
2023-04-01T19:06:50.412Z,75.86
2023-04-01T19:09:24.947Z,75.86
2023-04-01T19:12:21.828Z,75.79
2023-04-01T19:15:02.021Z,75.87
2023-04-01T19:17:46.437Z,75.81
2023-04-01T19:20:21.535Z,76.00
2023-04-01T19:23:20.225Z,76.31
2023-04-01T19:25:51.161Z,76.60
2023-04-01T19:28:29.585Z,76.89
2023-04-01T19:30:59.923Z,77.24
2023-04-01T19:33:43.497Z,77.47
2023-04-01T19:36:18.550Z,77.85
2023-04-01T19:38:55.057Z,78.08
2023-04-01T19:41:36.100Z,78.30
2023-04-01T19:44:13.796Z,78.45
2023-04-01T19:46:46.514Z,78.32
2023-04-01T19:49:31.802Z,78.30
2023-04-01T19:52:04.500Z,78.40
2023-04-01T19:54:38.466Z,78.27
2023-04-01T19:57:14.664Z,78.30
2023-04-01T19:59:49.053Z,78.22
2023-04-01T20:02:46.683Z,78.11
2023-04-01T20:05:27.875Z,78.02
2023-04-01T20:07:59.543Z,77.99
2023-04-01T20:10:34.129Z,77.94
2023-04-01T20:13:07.613Z,77.91
2023-04-01T20:15:37.527Z,77.85
2023-04-01T20:18:09.487Z,77.61
2023-04-01T20:20:39.568Z,77.38
2023-04-01T20:23:18.917Z,77.24
2023-04-01T20:25:52.134Z,77.00
2023-04-01T20:28:27.525Z,76.62
2023-04-01T20:31:04.155Z,76.37
2023-04-01T20:34:06.167Z,76.20
2023-04-01T20:36:41.310Z,75.77
2023-04-01T20:39:30.282Z,75.52
2023-04-01T20:42:15.256Z,75.15
2023-04-01T20:44:48.313Z,74.98
2023-04-01T20:47:24.648Z,74.86
2023-04-01T20:50:01.445Z,74.93
2023-04-01T20:52:40.690Z,74.84
2023-04-01T20:55:28.748Z,74.87
2023-04-01T20:58:06.604Z,74.59
2023-04-01T21:00:42.023Z,74.09
2023-04-01T21:03:29.929Z,74.12
2023-04-01T21:06:11.876Z,73.50
2023-04-01T21:08:53.665Z,73.40
2023-04-01T21:11:30.630Z,73.34
2023-04-01T21:14:07.529Z,73.12
2023-04-01T21:16:43.441Z,72.99
2023-04-01T21:19:21.109Z,72.78
2023-04-01T21:22:02.497Z,72.50
2023-04-01T21:24:52.963Z,72.36
2023-04-01T21:27:31.144Z,72.16
2023-04-01T21:30:07.570Z,72.04
2023-04-01T21:32:47.510Z,71.57
2023-04-01T21:35:25.841Z,71.50
2023-04-01T21:38:26.052Z,71.26
2023-04-01T21:41:16.025Z,71.20
2023-04-01T21:44:21.089Z,71.12
2023-04-01T21:47:32.036Z,71.14
2023-04-01T21:50:21.233Z,71.27
2023-04-01T21:53:05.451Z,71.35
2023-04-01T21:55:58.302Z,71.27
2023-04-01T21:59:04.109Z,71.46
2023-04-01T22:01:59.110Z,71.57
2023-04-01T22:04:39.921Z,71.70
2023-04-01T22:07:13.943Z,71.74
2023-04-01T22:09:46.579Z,71.78
2023-04-01T22:12:19.279Z,71.78
2023-04-01T22:14:54.149Z,71.63
2023-04-01T22:17:28.106Z,71.61
2023-04-01T22:20:10.367Z,71.71
2023-04-01T22:22:54.559Z,71.76
2023-04-01T22:25:27.287Z,71.76
2023-04-01T22:28:00.141Z,71.64
2023-04-01T22:30:33.826Z,71.52
2023-04-01T22:33:07.733Z,71.36
2023-04-01T22:35:42.190Z,71.38
2023-04-01T22:38:19.979Z,71.24
2023-04-01T22:40:54.934Z,71.23
2023-04-01T22:43:27.877Z,71.34
2023-04-01T22:46:18.857Z,71.37
2023-04-01T22:48:50.535Z,71.29
2023-04-01T22:51:21.783Z,71.34
2023-04-01T22:53:59.698Z,71.45
2023-04-01T22:56:32.234Z,71.50
2023-04-01T22:59:06.938Z,71.50
2023-04-01T23:01:43.930Z,71.37
2023-04-01T23:04:17.639Z,71.37
2023-04-01T23:06:50.647Z,71.16
2023-04-01T23:09:21.823Z,71.19
2023-04-01T23:11:53.892Z,71.18
2023-04-01T23:14:37.984Z,71.11
2023-04-01T23:17:19.719Z,70.96
2023-04-01T23:19:52.416Z,70.96
2023-04-01T23:22:28.984Z,70.94
2023-04-01T23:25:02.863Z,70.74
2023-04-01T23:27:37.157Z,70.69
2023-04-01T23:30:06.410Z,70.51
2023-04-01T23:32:36.205Z,70.25
2023-04-01T23:35:04.558Z,70.20
2023-04-01T23:37:32.796Z,70.15
2023-04-01T23:40:01.999Z,69.70
2023-04-01T23:42:31.704Z,69.55
2023-04-01T23:45:01.202Z,69.44
2023-04-01T23:47:33.489Z,69.44
2023-04-01T23:50:07.130Z,69.49
2023-04-01T23:52:38.838Z,69.37
2023-04-01T23:55:16.233Z,69.45
2023-04-01T23:57:44.403Z,69.45
